TimeEST,TemperatureF,Dew PointF,Humidity,Sea Level PressureIn,VisibilityMPH,Wind Direction,Wind SpeedMPH,Gust SpeedMPH,PrecipitationIn,Events,Conditions,WindDirDegrees,DateUTC
12:35 AM,10.4,6.8,85,30.19,10.0,West,4.6,-,N/A,,Clear,270,2012-12-26 05:35:00
12:55 AM,10.4,-9999,N/A,30.21,10.0,WNW,5.8,-,N/A,,Clear,290,2012-12-26 05:55:00
1:15 AM,12.2,12.2,100,30.22,10.0,NNW,3.5,-,N/A,,Clear,330,2012-12-26 06:15:00
1:35 AM,10.4,-2.2,57,30.22,10.0,WNW,3.5,-,N/A,,Clear,290,2012-12-26 06:35:00
1:55 AM,10.4,-9.4,41,30.23,10.0,Calm,Calm,-,N/A,,Clear,0,2012-12-26 06:55:00
2:15 AM,14.0,-0.4,53,30.23,10.0,Calm,Calm,-,N/A,,Clear,0,2012-12-26 07:15:00
2:35 AM,15.8,8.6,73,30.24,10.0,NW,3.5,-,N/A,,Clear,320,2012-12-26 07:35:00
2:55 AM,15.8,6.8,68,30.26,10.0,Calm,Calm,-,N/A,,Clear,0,2012-12-26 07:55:00
3:15 AM,12.2,-9999,N/A,30.28,10.0,SW,3.5,-,N/A,,Clear,220,2012-12-26 08:15:00
3:35 AM,12.2,12.2,100,30.28,10.0,Calm,Calm,-,N/A,,Clear,0,2012-12-26 08:35:00
4:15 AM,12.2,-9.4,38,30.26,10.0,NE,6.9,-,N/A,,Clear,50,2012-12-26 09:15:00
4:35 AM,15.8,1.4,53,30.26,10.0,Calm,Calm,-,N/A,,Clear,0,2012-12-26 09:35:00
5:15 AM,12.2,-9999,N/A,30.26,10.0,NW,3.5,-,N/A,,Clear,310,2012-12-26 10:15:00
5:35 AM,12.2,-9999,N/A,30.25,10.0,NNE,6.9,-,N/A,,Clear,30,2012-12-26 10:35:00
5:55 AM,14.0,-9999,N/A,30.25,10.0,Calm,Calm,-,N/A,,Clear,0,2012-12-26 10:55:00
6:15 AM,10.4,-4.0,52,30.25,10.0,Calm,Calm,-,N/A,,Clear,0,2012-12-26 11:15:00
6:35 AM,10.4,-13.0,34,30.25,10.0,Calm,Calm,-,N/A,,Clear,0,2012-12-26 11:35:00
6:55 AM,8.6,8.6,100,30.26,10.0,SSW,3.5,-,N/A,,Clear,210,2012-12-26 11:55:00
7:15 AM,8.6,8.6,100,30.27,10.0,SW,3.5,-,N/A,,Clear,220,2012-12-26 12:15:00
7:35 AM,10.4,-9.4,41,30.27,10.0,Calm,Calm,-,N/A,,Clear,0,2012-12-26 12:35:00
7:55 AM,8.6,-9.4,44,30.28,10.0,North,3.5,-,N/A,,Clear,360,2012-12-26 12:55:00
8:15 AM,12.2,6.8,79,30.30,10.0,Calm,Calm,-,N/A,,Clear,0,2012-12-26 13:15:00
8:35 AM,17.6,-9999,N/A,30.30,10.0,Calm,Calm,-,N/A,,Clear,0,2012-12-26 13:35:00
8:55 AM,17.6,-9999,N/A,30.30,10.0,Calm,Calm,-,N/A,,Clear,0,2012-12-26 13:55:00
9:15 AM,21.2,21.2,100,30.31,10.0,Calm,Calm,-,N/A,,Clear,0,2012-12-26 14:15:00
9:35 AM,21.2,19.4,93,30.31,10.0,NNE,3.5,-,N/A,,Clear,20,2012-12-26 14:35:00
9:55 AM,24.8,12.2,59,30.31,10.0,NE,4.6,-,N/A,,Clear,40,2012-12-26 14:55:00
10:15 AM,24.8,12.2,59,30.30,10.0,ENE,5.8,-,N/A,,Clear,60,2012-12-26 15:15:00
10:35 AM,26.6,17.6,69,30.30,10.0,ENE,5.8,-,N/A,,Clear,60,2012-12-26 15:35:00
10:55 AM,26.6,21.2,80,30.30,10.0,East,4.6,-,N/A,,Clear,80,2012-12-26 15:55:00
11:15 AM,28.4,17.6,64,30.30,10.0,NE,6.9,-,N/A,,Clear,50,2012-12-26 16:15:00
11:35 AM,28.4,15.8,59,30.29,10.0,ENE,4.6,-,N/A,,Clear,60,2012-12-26 16:35:00
11:55 AM,28.4,15.8,59,30.27,10.0,ENE,4.6,-,N/A,,Clear,60,2012-12-26 16:55:00
12:15 PM,28.4,17.6,64,30.26,10.0,ENE,5.8,-,N/A,,Clear,60,2012-12-26 17:15:00
12:35 PM,28.4,15.8,59,30.25,10.0,ENE,6.9,-,N/A,,Clear,60,2012-12-26 17:35:00
12:55 PM,30.2,17.6,60,30.26,10.0,NE,5.8,-,N/A,,Clear,50,2012-12-26 17:55:00
1:35 PM,30.2,15.8,55,30.26,10.0,SE,3.5,-,N/A,,Clear,140,2012-12-26 18:35:00
1:55 PM,30.2,24.8,80,30.26,10.0,SE,3.5,-,N/A,,Clear,130,2012-12-26 18:55:00
2:15 PM,30.2,30.2,100,30.25,10.0,East,3.5,-,N/A,,Clear,100,2012-12-26 19:15:00
2:35 PM,28.4,28.4,100,30.25,10.0,East,5.8,-,N/A,,Clear,90,2012-12-26 19:35:00
3:15 PM,28.4,17.6,64,30.27,10.0,Calm,Calm,-,N/A,,Clear,0,2012-12-26 20:15:00
3:35 PM,28.4,12.2,51,30.27,10.0,ENE,5.8,-,N/A,,Clear,60,2012-12-26 20:35:00
3:55 PM,26.6,23.0,86,30.26,10.0,NE,4.6,-,N/A,,Clear,50,2012-12-26 20:55:00
4:15 PM,26.6,26.6,100,30.26,10.0,NNE,5.8,-,N/A,,Partly Cloudy,30,2012-12-26 21:15:00
4:35 PM,24.8,14.0,64,30.23,10.0,NNE,8.1,-,N/A,,Clear,30,2012-12-26 21:35:00
4:55 PM,26.6,15.8,64,30.23,10.0,NNE,5.8,-,N/A,,Partly Cloudy,30,2012-12-26 21:55:00
5:15 PM,26.6,26.6,100,30.22,10.0,NNE,5.8,-,N/A,,Clear,30,2012-12-26 22:15:00
5:55 PM,26.6,12.2,55,30.22,10.0,NNE,8.1,-,N/A,,Clear,30,2012-12-26 22:55:00
6:15 PM,26.6,26.6,100,30.23,10.0,NE,4.6,-,N/A,,Clear,40,2012-12-26 23:15:00
6:55 PM,26.6,17.6,69,30.21,10.0,NNE,9.2,-,N/A,,Scattered Clouds,30,2012-12-26 23:55:00
7:15 PM,26.6,24.8,93,30.21,10.0,NE,9.2,-,N/A,,Mostly Cloudy,40,2012-12-27 00:15:00
7:35 PM,26.6,21.2,80,30.21,10.0,NE,8.1,-,N/A,,Mostly Cloudy,40,2012-12-27 00:35:00
7:55 PM,28.4,19.4,69,30.19,10.0,NE,11.5,-,N/A,,Partly Cloudy,40,2012-12-27 00:55:00
8:15 PM,28.4,28.4,100,30.18,10.0,NE,10.4,-,N/A,,Mostly Cloudy,40,2012-12-27 01:15:00
8:35 PM,28.4,21.2,74,30.17,10.0,NE,11.5,-,N/A,,Overcast,40,2012-12-27 01:35:00
8:55 PM,28.4,24.8,86,30.17,10.0,NE,10.4,-,N/A,,Overcast,40,2012-12-27 01:55:00
9:15 PM,28.4,24.8,86,30.16,10.0,NNE,12.7,-,N/A,,Overcast,30,2012-12-27 02:15:00
9:35 PM,28.4,17.6,64,30.14,10.0,NNE,12.7,-,N/A,,Overcast,30,2012-12-27 02:35:00
9:55 PM,28.4,28.4,100,30.13,10.0,NNE,12.7,-,N/A,,Overcast,30,2012-12-27 02:55:00
10:15 PM,28.4,10.4,47,30.11,10.0,NE,13.8,-,N/A,,Overcast,40,2012-12-27 03:15:00
10:35 PM,26.6,26.6,100,30.09,10.0,NNE,15.0,23.0,N/A,,Overcast,30,2012-12-27 03:35:00
10:55 PM,26.6,24.8,93,30.09,5.0,NE,15.0,-,N/A,,Overcast,40,2012-12-27 03:55:00
11:15 PM,26.6,12.2,55,30.08,3.0,NE,16.1,-,N/A,,Overcast,40,2012-12-27 04:15:00
11:35 PM,26.6,26.6,100,30.05,1.8,NE,15.0,-,N/A,,Overcast,40,2012-12-27 04:35:00
11:55 PM,24.8,15.8,69,30.03,1.2,NNE,16.1,-,N/A,,Overcast,30,2012-12-27 04:55:00